Arauca, Arauca Santiago Perez Quiroz Airport (SKUC)

NameArauca Santiago Perez Quiroz Airport
CityArauca
CountryColombia
ICAOSKUC
IATAAUC
Altitude129 m
CoordinatesGoogle Map
Live Air TrafficLiveATC.net
METARSKUC 201400Z 11003KT 9999 FEW012 30/26 A2989
2019-09-20 14:00:00 Wind: East (110°) 1.54 m/s - Visibility: > 10000 m - Temperature: 30 °C - Dew point: 26 °C - Humidity: 79.2% - Pressure: 1012.19 hPa
Statistics

The table below shows the detailed information of all flights to/from Arauca, Arauca Santiago Perez Quiroz Airport (SKUC).